Time,TemperatureF,DewpointF,PressureIn,WindDirection,WindDirectionDegrees,WindSpeedMPH,WindSpeedGustMPH,Humidity,HourlyPrecipIn,Conditions,Clouds,dailyrainin,SoftwareType,DateUTC
2013-02-24 00:00:00,30.2,27.9,29.91,NNE,15,0.0,0.0,91,0.00,BKN,BKN,0.00,WeatherDisplay:10.37,2013-02-24 05:00:00,
2013-02-24 00:10:00,30.4,28.1,29.90,NNE,15,0.0,0.0,91,0.00,BKN,BKN,0.00,WeatherDisplay:10.37,2013-02-24 05:10:00,
2013-02-24 00:20:00,30.2,27.9,29.90,NNE,15,0.0,0.0,91,0.00,BKN,BKN,0.00,WeatherDisplay:10.37,2013-02-24 05:20:00,
2013-02-24 00:30:00,30.2,27.9,29.91,NNE,15,0.0,0.0,91,0.00,BKN,BKN,0.00,WeatherDisplay:10.37,2013-02-24 05:30:00,
2013-02-24 00:40:00,30.2,27.9,29.90,NNE,15,0.0,0.0,91,0.00,BKN,BKN,0.00,WeatherDisplay:10.37,2013-02-24 05:40:00,
2013-02-24 00:50:00,30.2,27.9,29.90,NNE,15,0.0,0.0,91,0.00,BKN,BKN,0.00,WeatherDisplay:10.37,2013-02-24 05:50:00,
2013-02-24 01:00:00,30.2,27.9,29.89,NNE,15,0.0,0.0,91,0.00,BKN,BKN,0.00,WeatherDisplay:10.37,2013-02-24 06:00:00,
2013-02-24 01:10:00,30.2,27.9,29.88,NNE,15,0.0,0.0,91,0.00,BKN,BKN,0.00,WeatherDisplay:10.37,2013-02-24 06:10:00,
2013-02-24 01:20:00,30.0,27.7,29.88,NNE,15,0.0,0.0,91,0.00,BKN,BKN,0.00,WeatherDisplay:10.37,2013-02-24 06:20:00,
2013-02-24 01:30:00,29.8,27.5,29.88,NNE,15,0.0,0.0,91,0.00,BKN,BKN,0.00,WeatherDisplay:10.37,2013-02-24 06:30:00,
2013-02-24 01:40:00,29.8,27.5,29.87,NNE,15,0.0,0.0,91,0.00,BKN,BKN,0.00,WeatherDisplay:10.37,2013-02-24 06:40:00,
2013-02-24 01:50:00,29.8,27.5,29.86,NNE,15,0.0,0.0,91,0.00,BKN,BKN,0.00,WeatherDisplay:10.37,2013-02-24 06:50:00,
2013-02-24 02:00:00,29.8,27.5,29.86,NNE,15,0.0,0.0,91,0.00,BKN,BKN,0.00,WeatherDisplay:10.37,2013-02-24 07:00:00,
2013-02-24 02:10:00,29.8,27.5,29.86,NNE,15,0.0,0.0,91,0.00,BKN,BKN,0.00,WeatherDisplay:10.37,2013-02-24 07:10:00,
2013-02-24 02:20:00,30.0,27.7,29.86,NNE,15,0.0,0.0,91,0.00,BKN,BKN,0.00,WeatherDisplay:10.37,2013-02-24 07:20:00,
2013-02-24 02:30:00,30.2,27.9,29.85,NNE,15,0.0,0.0,91,0.00,BKN,BKN,0.00,WeatherDisplay:10.37,2013-02-24 07:30:00,
2013-02-24 02:40:00,30.2,27.9,29.84,NNE,15,0.0,0.0,91,0.00,BKN,BKN,0.00,WeatherDisplay:10.37,2013-02-24 07:40:00,
2013-02-24 02:50:00,30.2,27.9,29.83,NNE,15,0.0,0.0,91,0.00,BKN,BKN,0.00,WeatherDisplay:10.37,2013-02-24 07:50:00,
2013-02-24 03:00:00,30.2,27.9,29.82,NNE,15,0.0,0.0,91,0.00,BKN,BKN,0.00,WeatherDisplay:10.37,2013-02-24 08:00:00,
2013-02-24 03:10:00,30.2,27.9,29.82,NNE,15,0.0,0.0,91,0.00,BKN,BKN,0.00,WeatherDisplay:10.37,2013-02-24 08:10:00,
2013-02-24 03:20:00,30.2,27.9,29.83,NNE,15,0.0,0.0,91,0.00,BKN,BKN,0.00,WeatherDisplay:10.37,2013-02-24 08:20:00,
2013-02-24 03:30:00,30.2,27.9,29.83,NNE,15,0.0,0.0,91,0.00,BKN,BKN,0.00,WeatherDisplay:10.37,2013-02-24 08:30:00,
2013-02-24 03:40:00,30.2,27.9,29.82,NNE,15,0.0,0.0,91,0.00,BKN,BKN,0.00,WeatherDisplay:10.37,2013-02-24 08:40:00,
2013-02-24 03:50:00,30.1,27.8,29.82,NNE,15,0.0,0.0,91,0.00,BKN,BKN,0.00,WeatherDisplay:10.37,2013-02-24 08:50:00,
2013-02-24 04:00:00,30.2,27.9,29.81,NNE,15,0.0,0.0,91,0.00,BKN,BKN,0.00,WeatherDisplay:10.37,2013-02-24 09:00:00,
2013-02-24 04:10:00,30.2,27.9,29.81,NNE,15,0.0,0.0,91,0.00,BKN,BKN,0.00,WeatherDisplay:10.37,2013-02-24 09:10:00,
2013-02-24 04:20:00,30.2,27.9,29.82,NNE,15,0.0,0.0,91,0.00,BKN,BKN,0.00,WeatherDisplay:10.37,2013-02-24 09:20:00,
2013-02-24 04:30:00,30.2,27.9,29.83,NNE,15,0.0,0.0,91,0.00,BKN,BKN,0.00,WeatherDisplay:10.37,2013-02-24 09:30:00,
2013-02-24 04:40:00,30.2,27.9,29.81,NNE,15,0.0,0.0,91,0.00,BKN,BKN,0.00,WeatherDisplay:10.37,2013-02-24 09:40:00,
2013-02-24 04:50:00,30.2,27.9,29.81,NNE,15,0.0,0.0,91,0.00,BKN,BKN,0.00,WeatherDisplay:10.37,2013-02-24 09:50:00,
2013-02-24 05:00:00,30.2,27.9,29.81,NNE,15,0.0,0.0,91,0.00,BKN,BKN,0.00,WeatherDisplay:10.37,2013-02-24 10:00:00,
2013-02-24 05:10:00,30.2,27.9,29.81,NNE,15,0.0,0.0,91,0.00,BKN,BKN,0.00,WeatherDisplay:10.37,2013-02-24 10:10:00,
2013-02-24 05:20:00,30.2,27.9,29.81,NNE,15,0.0,0.0,91,0.00,BKN,BKN,0.00,WeatherDisplay:10.37,2013-02-24 10:20:00,
2013-02-24 05:30:00,30.1,27.8,29.82,NNE,15,0.0,0.0,91,0.00,BKN,BKN,0.00,WeatherDisplay:10.37,2013-02-24 10:30:00,
2013-02-24 05:40:00,30.2,27.9,29.81,NNE,15,0.0,0.0,91,0.00,BKN,BKN,0.00,WeatherDisplay:10.37,2013-02-24 10:40:00,
2013-02-24 05:50:00,30.2,27.9,29.81,NNE,15,0.0,0.0,91,0.00,BKN,BKN,0.00,WeatherDisplay:10.37,2013-02-24 10:50:00,
2013-02-24 06:00:00,30.2,27.9,29.82,NNE,15,0.0,0.0,91,0.00,BKN,BKN,0.00,WeatherDisplay:10.37,2013-02-24 11:00:00,
2013-02-24 06:10:00,30.2,27.9,29.82,NNE,15,0.0,0.0,91,0.00,BKN,BKN,0.00,WeatherDisplay:10.37,2013-02-24 11:10:00,
2013-02-24 06:20:00,29.9,27.6,29.81,NNE,15,0.0,0.0,91,0.00,BKN,BKN,0.00,WeatherDisplay:10.37,2013-02-24 11:20:00,
2013-02-24 06:30:00,29.8,27.5,29.81,NNE,15,0.0,0.0,91,0.00,BKN,BKN,0.00,WeatherDisplay:10.37,2013-02-24 11:30:00,
2013-02-24 06:40:00,29.9,27.6,29.82,NNE,15,0.0,0.0,91,0.00,BKN,BKN,0.00,WeatherDisplay:10.37,2013-02-24 11:40:00,
2013-02-24 06:50:00,29.8,27.5,29.82,NNE,15,0.0,0.0,91,0.00,BKN,BKN,0.00,WeatherDisplay:10.37,2013-02-24 11:50:00,
2013-02-24 07:00:00,29.8,27.5,29.81,NNE,15,0.0,0.0,91,0.00,BKN,BKN,0.00,WeatherDisplay:10.37,2013-02-24 12:00:00,
2013-02-24 07:10:00,29.9,27.6,29.82,NNE,15,0.0,0.0,91,0.00,BKN,BKN,0.00,WeatherDisplay:10.37,2013-02-24 12:10:00,
2013-02-24 07:20:00,29.8,27.5,29.82,NNE,15,0.0,0.0,91,0.00,BKN,BKN,0.00,WeatherDisplay:10.37,2013-02-24 12:20:00,
2013-02-24 07:40:00,29.8,27.5,29.81,NNE,15,0.0,0.0,91,0.00,BKN,BKN,0.00,WeatherDisplay:10.37,2013-02-24 12:40:00,
2013-02-24 07:50:00,29.8,27.5,29.81,NNE,15,0.0,0.0,91,0.00,BKN,BKN,0.00,WeatherDisplay:10.37,2013-02-24 12:50:00,
2013-02-24 08:00:00,29.8,27.5,29.81,NNE,15,0.0,0.0,91,0.00,BKN,BKN,0.00,WeatherDisplay:10.37,2013-02-24 13:00:00,
2013-02-24 08:10:00,29.8,27.5,29.81,NNE,15,0.0,0.0,91,0.00,BKN,BKN,0.00,WeatherDisplay:10.37,2013-02-24 13:10:00,
2013-02-24 08:20:00,29.8,27.5,29.81,NNE,15,0.0,0.0,91,0.00,BKN,BKN,0.00,WeatherDisplay:10.37,2013-02-24 13:20:00,
2013-02-24 08:30:00,29.9,27.6,29.79,NNE,15,0.0,0.0,91,0.00,BKN,BKN,0.00,WeatherDisplay:10.37,2013-02-24 13:30:00,
2013-02-24 08:40:00,29.8,27.5,29.78,NNE,15,0.0,0.0,91,0.00,BKN,BKN,0.00,WeatherDisplay:10.37,2013-02-24 13:40:00,
2013-02-24 08:50:00,29.8,27.5,29.78,NNE,15,0.0,0.0,91,0.00,BKN,BKN,0.00,WeatherDisplay:10.37,2013-02-24 13:50:00,
2013-02-24 09:00:00,29.8,27.5,29.77,NNE,15,0.0,0.0,91,0.00,BKN,BKN,0.00,WeatherDisplay:10.37,2013-02-24 14:00:00,
2013-02-24 09:10:00,29.8,27.5,29.77,NNE,15,0.0,0.0,91,0.00,BKN,BKN,0.00,WeatherDisplay:10.37,2013-02-24 14:10:00,
2013-02-24 09:20:00,29.8,27.5,29.77,NNE,15,0.0,0.0,91,0.00,BKN,BKN,0.00,WeatherDisplay:10.37,2013-02-24 14:20:00,
2013-02-24 09:30:00,29.8,27.5,29.78,NNE,15,0.0,0.0,91,0.00,BKN,BKN,0.00,WeatherDisplay:10.37,2013-02-24 14:30:00,
2013-02-24 09:40:00,29.8,27.5,29.79,NNE,15,0.0,0.0,91,0.00,BKN,BKN,0.00,WeatherDisplay:10.37,2013-02-24 14:40:00,
2013-02-24 09:50:00,29.8,27.5,29.78,NNE,15,0.0,0.0,91,0.00,BKN,BKN,0.00,WeatherDisplay:10.37,2013-02-24 14:50:00,
2013-02-24 10:10:00,29.8,27.5,29.76,NNE,15,0.0,0.0,91,0.00,BKN,BKN,0.00,WeatherDisplay:10.37,2013-02-24 15:10:00,
2013-02-24 10:20:00,29.8,27.5,29.76,NNE,15,0.0,0.0,91,0.00,BKN,BKN,0.00,WeatherDisplay:10.37,2013-02-24 15:20:00,
2013-02-24 10:30:00,30.1,27.8,29.76,NNE,15,0.0,0.0,91,0.00,BKN,BKN,0.00,WeatherDisplay:10.37,2013-02-24 15:30:00,
2013-02-24 10:40:00,30.1,27.8,29.76,NNE,15,0.0,0.0,91,0.00,BKN,BKN,0.00,WeatherDisplay:10.37,2013-02-24 15:40:00,
2013-02-24 10:50:00,29.9,27.6,29.75,NNE,15,0.0,0.0,91,0.00,BKN,BKN,0.00,WeatherDisplay:10.37,2013-02-24 15:50:00,
2013-02-24 11:00:00,30.0,27.7,29.75,NNE,15,0.0,0.0,91,0.00,BKN,BKN,0.00,WeatherDisplay:10.37,2013-02-24 16:00:00,
2013-02-24 11:10:00,30.2,27.9,29.75,NNE,15,0.0,0.0,91,0.01,RA,RA,0.01,WeatherDisplay:10.37,2013-02-24 16:10:00,
2013-02-24 11:20:00,30.2,27.9,29.75,NNE,15,0.0,0.0,91,0.00,BKN,BKN,0.01,WeatherDisplay:10.37,2013-02-24 16:20:00,
2013-02-24 11:30:00,30.1,27.8,29.76,NNE,15,0.0,0.0,91,0.00,BKN,BKN,0.01,WeatherDisplay:10.37,2013-02-24 16:30:00,
2013-02-24 11:40:00,30.2,27.9,29.76,NNE,15,0.0,0.0,91,0.00,BKN,BKN,0.01,WeatherDisplay:10.37,2013-02-24 16:40:00,
2013-02-24 11:50:00,30.2,27.9,29.76,NNE,15,0.0,0.0,91,0.00,BKN,BKN,0.01,WeatherDisplay:10.37,2013-02-24 16:50:00,
2013-02-24 12:00:00,30.2,27.9,29.74,NNE,15,0.0,0.0,91,0.00,BKN,BKN,0.01,WeatherDisplay:10.37,2013-02-24 17:00:00,
2013-02-24 12:10:00,30.1,27.8,29.74,NNE,15,0.0,0.0,91,0.00,BKN,BKN,0.01,WeatherDisplay:10.37,2013-02-24 17:10:00,
2013-02-24 12:20:00,30.2,27.9,29.74,NNE,15,0.0,0.0,91,0.00,BKN,BKN,0.01,WeatherDisplay:10.37,2013-02-24 17:20:00,
2013-02-24 12:40:00,30.2,27.9,29.74,NNE,15,0.0,0.0,91,0.00,BKN,BKN,0.01,WeatherDisplay:10.37,2013-02-24 17:40:00,
2013-02-24 12:50:00,30.1,27.8,29.74,NNE,15,0.0,0.0,91,0.00,BKN,BKN,0.01,WeatherDisplay:10.37,2013-02-24 17:50:00,
2013-02-24 13:00:00,30.1,27.7,29.74,NNE,15,0.0,0.0,91,0.00,BKN,BKN,0.01,WeatherDisplay:10.37,2013-02-24 18:00:00,
2013-02-24 13:10:00,30.1,27.8,29.74,NNE,15,0.0,0.0,91,0.00,BKN,BKN,0.01,WeatherDisplay:10.37,2013-02-24 18:10:00,
2013-02-24 13:20:00,30.0,27.7,29.73,NNE,15,0.0,0.0,91,0.00,BKN,BKN,0.01,WeatherDisplay:10.37,2013-02-24 18:20:00,
2013-02-24 13:30:00,30.2,27.9,29.73,NNE,15,0.0,0.0,91,0.00,BKN,BKN,0.01,WeatherDisplay:10.37,2013-02-24 18:30:00,
2013-02-24 13:40:00,30.2,27.9,29.75,NNE,15,0.0,0.0,91,0.00,BKN,BKN,0.01,WeatherDisplay:10.37,2013-02-24 18:40:00,
2013-02-24 13:50:00,30.2,27.9,29.74,NNE,15,0.0,0.0,91,0.00,BKN,BKN,0.01,WeatherDisplay:10.37,2013-02-24 18:50:00,
2013-02-24 14:00:00,30.2,27.9,29.73,NNE,15,0.0,0.0,91,0.00,BKN,BKN,0.01,WeatherDisplay:10.37,2013-02-24 19:00:00,
2013-02-24 14:10:00,30.2,27.9,29.73,NNE,15,0.0,0.0,91,0.00,BKN,BKN,0.01,WeatherDisplay:10.37,2013-02-24 19:10:00,
2013-02-24 14:20:00,30.2,27.9,29.73,NNE,15,0.0,0.0,91,0.00,BKN,BKN,0.01,WeatherDisplay:10.37,2013-02-24 19:20:00,
2013-02-24 14:30:00,30.2,27.9,29.73,NNE,15,0.0,0.0,91,0.00,BKN,BKN,0.01,WeatherDisplay:10.37,2013-02-24 19:30:00,
2013-02-24 14:40:00,30.2,27.9,29.73,NNE,15,0.0,0.0,91,0.00,BKN,BKN,0.01,WeatherDisplay:10.37,2013-02-24 19:40:00,
2013-02-24 14:50:00,30.2,27.9,29.74,NNE,14,0.0,0.0,91,0.00,BKN,BKN,0.01,WeatherDisplay:10.37,2013-02-24 19:50:00,
2013-02-24 15:10:00,30.2,27.9,29.74,North,1,0.0,0.0,91,0.00,BKN,BKN,0.01,WeatherDisplay:10.37,2013-02-24 20:10:00,
2013-02-24 15:20:00,30.2,27.9,29.74,North,351,0.0,0.0,91,0.00,BKN,BKN,0.01,WeatherDisplay:10.37,2013-02-24 20:20:00,
2013-02-24 15:30:00,30.2,27.9,29.74,North,352,0.0,0.0,91,0.00,BKN,BKN,0.01,WeatherDisplay:10.37,2013-02-24 20:30:00,
2013-02-24 15:40:00,30.2,27.9,29.74,North,352,0.0,0.0,91,0.00,BKN,BKN,0.01,WeatherDisplay:10.37,2013-02-24 20:40:00,
2013-02-24 15:50:00,30.2,27.9,29.75,North,352,0.0,0.0,91,0.00,BKN,BKN,0.01,WeatherDisplay:10.37,2013-02-24 20:50:00,
2013-02-24 16:00:00,30.2,27.9,29.75,North,352,0.0,0.0,91,0.00,BKN,BKN,0.01,WeatherDisplay:10.37,2013-02-24 21:00:00,
2013-02-24 16:10:00,30.2,27.9,29.75,North,352,0.0,0.0,91,0.00,BKN,BKN,0.01,WeatherDisplay:10.37,2013-02-24 21:10:00,
2013-02-24 16:20:00,30.2,27.9,29.75,North,352,0.0,0.0,91,0.00,BKN,BKN,0.01,WeatherDisplay:10.37,2013-02-24 21:20:00,
2013-02-24 16:30:00,30.2,27.9,29.75,North,352,0.0,0.0,91,0.00,BKN,BKN,0.01,WeatherDisplay:10.37,2013-02-24 21:30:00,
2013-02-24 16:40:00,30.3,28.0,29.75,North,352,0.0,0.0,91,0.00,BKN,BKN,0.01,WeatherDisplay:10.37,2013-02-24 21:40:00,
2013-02-24 16:50:00,30.4,28.1,29.75,North,352,0.0,0.0,91,0.00,BKN,BKN,0.01,WeatherDisplay:10.37,2013-02-24 21:50:00,
2013-02-24 17:00:00,30.4,28.1,29.75,North,352,0.0,0.0,91,0.00,BKN,BKN,0.01,WeatherDisplay:10.37,2013-02-24 22:00:00,
2013-02-24 17:10:00,30.2,27.9,29.75,North,352,0.0,0.0,91,0.00,BKN,BKN,0.01,WeatherDisplay:10.37,2013-02-24 22:10:00,
2013-02-24 17:20:00,30.2,27.9,29.77,North,352,0.0,0.0,91,0.00,BKN,BKN,0.01,WeatherDisplay:10.37,2013-02-24 22:20:00,
2013-02-24 17:30:00,30.2,27.9,29.77,North,352,0.0,0.0,91,0.00,BKN,BKN,0.01,WeatherDisplay:10.37,2013-02-24 22:30:00,
2013-02-24 17:40:00,30.2,27.9,29.77,North,352,0.0,0.0,91,0.00,BKN,BKN,0.01,WeatherDisplay:10.37,2013-02-24 22:40:00,
2013-02-24 17:50:00,30.2,27.9,29.77,North,352,0.0,0.0,91,0.00,BKN,BKN,0.01,WeatherDisplay:10.37,2013-02-24 22:50:00,
2013-02-24 18:00:00,30.2,27.9,29.77,North,352,0.0,0.0,91,0.00,BKN,BKN,0.01,WeatherDisplay:10.37,2013-02-24 23:00:00,
2013-02-24 18:10:00,30.2,27.9,29.78,North,352,0.0,0.0,91,0.00,BKN,BKN,0.01,WeatherDisplay:10.37,2013-02-24 23:10:00,
2013-02-24 18:20:00,30.2,27.9,29.78,North,352,0.0,0.0,91,0.00,BKN,BKN,0.01,WeatherDisplay:10.37,2013-02-24 23:20:00,
2013-02-24 18:30:00,30.2,27.9,29.78,North,352,0.0,0.0,91,0.00,BKN,BKN,0.01,WeatherDisplay:10.37,2013-02-24 23:30:00,
2013-02-24 18:40:00,30.2,27.9,29.78,North,352,0.0,0.0,91,0.00,BKN,BKN,0.01,WeatherDisplay:10.37,2013-02-24 23:40:00,
2013-02-24 18:50:00,30.2,27.9,29.79,North,352,0.0,0.0,91,0.00,BKN,BKN,0.01,WeatherDisplay:10.37,2013-02-24 23:50:00,
2013-02-24 19:00:00,30.2,27.9,29.79,North,352,0.0,0.0,91,0.00,BKN,BKN,0.01,WeatherDisplay:10.37,2013-02-25 00:00:00,
2013-02-24 19:10:00,30.1,27.8,29.79,North,351,0.0,0.0,91,0.00,BKN,BKN,0.01,WeatherDisplay:10.37,2013-02-25 00:10:00,
2013-02-24 19:20:00,30.0,27.7,29.80,North,352,0.0,0.0,91,0.00,BKN,BKN,0.01,WeatherDisplay:10.37,2013-02-25 00:20:00,
2013-02-24 19:30:00,30.2,27.9,29.81,North,352,0.0,0.0,91,0.00,BKN,BKN,0.01,WeatherDisplay:10.37,2013-02-25 00:30:00,
2013-02-24 19:40:00,30.2,27.9,29.81,North,352,0.0,0.0,91,0.00,BKN,BKN,0.01,WeatherDisplay:10.37,2013-02-25 00:40:00,
2013-02-24 19:50:00,29.8,27.5,29.81,North,352,0.0,0.0,91,0.00,BKN,BKN,0.01,WeatherDisplay:10.37,2013-02-25 00:50:00,
2013-02-24 20:00:00,29.8,27.5,29.81,North,352,0.0,0.0,91,0.00,BKN,BKN,0.01,WeatherDisplay:10.37,2013-02-25 01:00:00,
2013-02-24 20:10:00,29.8,27.5,29.81,North,352,0.0,0.0,91,0.00,BKN,BKN,0.01,WeatherDisplay:10.37,2013-02-25 01:10:00,
2013-02-24 20:20:00,29.8,27.5,29.81,North,352,0.0,0.0,91,0.00,BKN,BKN,0.01,WeatherDisplay:10.37,2013-02-25 01:20:00,
2013-02-24 20:30:00,29.8,27.5,29.82,North,352,0.0,0.0,91,0.00,BKN,BKN,0.01,WeatherDisplay:10.37,2013-02-25 01:30:00,
2013-02-24 20:40:00,29.7,27.4,29.82,North,352,0.0,0.0,91,0.00,BKN,BKN,0.01,WeatherDisplay:10.37,2013-02-25 01:40:00,
2013-02-24 20:50:00,29.8,27.5,29.83,North,352,0.0,0.0,91,0.00,BKN,BKN,0.01,WeatherDisplay:10.37,2013-02-25 01:50:00,
2013-02-24 21:00:00,30.2,27.9,29.83,North,352,0.0,0.0,91,0.00,BKN,BKN,0.01,WeatherDisplay:10.37,2013-02-25 02:00:00,
2013-02-24 21:10:00,30.2,27.9,29.83,North,352,0.0,0.0,91,0.00,BKN,BKN,0.01,WeatherDisplay:10.37,2013-02-25 02:10:00,
2013-02-24 21:20:00,30.2,27.9,29.83,North,352,0.0,0.0,91,0.00,BKN,BKN,0.01,WeatherDisplay:10.37,2013-02-25 02:20:00,
2013-02-24 21:30:00,30.2,27.9,29.84,North,352,0.0,0.0,91,0.00,BKN,BKN,0.01,WeatherDisplay:10.37,2013-02-25 02:30:00,
2013-02-24 21:40:00,30.2,27.9,29.85,North,352,0.0,0.0,91,0.00,BKN,BKN,0.01,WeatherDisplay:10.37,2013-02-25 02:40:00,
2013-02-24 21:50:00,30.2,27.9,29.84,North,352,0.0,0.0,91,0.00,BKN,BKN,0.01,WeatherDisplay:10.37,2013-02-25 02:50:00,
2013-02-24 22:00:00,30.2,27.9,29.84,North,352,0.0,0.0,91,0.00,BKN,BKN,0.01,WeatherDisplay:10.37,2013-02-25 03:00:00,
2013-02-24 22:10:00,30.2,27.9,29.84,North,352,0.0,0.0,91,0.00,BKN,BKN,0.01,WeatherDisplay:10.37,2013-02-25 03:10:00,
2013-02-24 22:20:00,30.2,27.9,29.84,North,352,0.0,0.0,91,0.00,BKN,BKN,0.01,WeatherDisplay:10.37,2013-02-25 03:20:00,
2013-02-24 22:30:00,30.2,27.9,29.84,North,352,0.0,0.0,91,0.00,BKN,BKN,0.01,WeatherDisplay:10.37,2013-02-25 03:30:00,
2013-02-24 22:40:00,30.2,27.9,29.84,North,352,0.0,0.0,91,0.00,BKN,BKN,0.01,WeatherDisplay:10.37,2013-02-25 03:40:00,
2013-02-24 22:50:00,30.2,27.9,29.84,North,352,0.0,0.0,91,0.00,BKN,BKN,0.01,WeatherDisplay:10.37,2013-02-25 03:50:00,
2013-02-24 23:10:00,30.2,27.9,29.85,North,352,0.0,0.0,91,0.00,BKN,BKN,0.01,WeatherDisplay:10.37,2013-02-25 04:10:00,
2013-02-24 23:20:00,30.2,27.9,29.85,North,352,0.0,0.0,91,0.00,BKN,BKN,0.01,WeatherDisplay:10.37,2013-02-25 04:20:00,
2013-02-24 23:30:00,30.2,27.9,29.85,North,352,0.0,0.0,91,0.00,BKN,BKN,0.01,WeatherDisplay:10.37,2013-02-25 04:30:00,
2013-02-24 23:40:00,30.2,27.9,29.85,North,352,0.0,0.0,91,0.00,BKN,BKN,0.01,WeatherDisplay:10.37,2013-02-25 04:40:00,
2013-02-24 23:50:00,30.2,27.9,29.85,North,352,0.0,0.0,91,0.00,BKN,BKN,0.01,WeatherDisplay:10.37,2013-02-25 04:50:00,